Shimojishima

Current Flights

Departures
Number Departure To Airline
Arrivals
Number Arrival From Airline
Info
Name: Shimojishima
Identifier:  SHI/RORS
Local Time:  20. May 18:40
City
Shimojishima
  Japan

Flights per Day
0 flights
Distance: 1,900km (1,180mi)
Punctuality
66% (0 flights per day delayed)
Delay Average: 19 minutes
Current Weather
 25 C (Humidity: 88%)
  22kt (40km/h / 25mph) from 360°
  Few clouds at 700 feet (213 meter)
  Scattered clouds at 1,000 feet (304 meter)
  Broken clouds at 2,500 feet (762 meter)
  9km (6 mi.)
 METAR RORS 201000Z 36022KT 9999 FEW007 SCT010 BKN025 25/23 Q1006

Current Delays

Departures
N/A
Arrivals
N/A

Destinations

Top Destinations
Airport Flights
per week
Seats
per week
  Tokyo (NRT) 7 1,344 1 192

Airlines & Planes

Top Airlines
Airline Flights
per Day
Seats
per Day
  Jetstar Japan 1 192
  Jetstar Airways <1 -
Top Plane Types
Manufacturer Model Flights Seats
Airbus A320 1.3/day 192/day 192